Time;durP1;ratioP1;P1;durP2;ratioP2;P2;SDS_P1;SDS_P2;PMS_P1;PMS_P2;Temp;Humidity;BMP_temperature;BMP_pressure;BME280_temperature;BME280_humidity;BME280_pressure;Samples;Min_cycle;Max_cycle;Signal;HPM_P1;HPM_P2
2022/01/06 00:01:04;;;;;;;11.40;3.67;;;5.30;99.90;;;;;;4955118;28;20222;-71
2022/01/06 00:03:32;;;;;;;11.90;3.03;;;5.20;99.90;;;;;;4955336;29;20217;-72
2022/01/06 00:06:03;;;;;;;12.03;3.57;;;5.20;99.90;;;;;;4962095;28;20201;-71
2022/01/06 00:09:17;;;;;;;11.53;4.13;;;5.20;99.90;;;;;;4968472;28;20212;-71
2022/01/06 00:11:46;;;;;;;13.30;3.67;;;5.20;99.90;;;;;;4968677;28;20722;-71
2022/01/06 00:14:19;;;;;;;15.00;3.60;;;5.20;99.90;;;;;;4958021;28;20196;-71
2022/01/06 00:17:01;;;;;;;15.00;3.70;;;5.10;99.90;;;;;;4968020;28;20653;-71
2022/01/06 00:25:02;;;;;;;13.93;3.60;;;5.00;99.90;;;;;;4957094;28;20194;-72
2022/01/06 00:27:30;;;;;;;13.50;4.83;;;5.10;99.90;;;;;;4956088;28;20197;-71
2022/01/06 00:30:38;;;;;;;15.53;3.77;;;5.00;99.90;;;;;;4972959;28;20189;-72
2022/01/06 00:33:05;;;;;;;10.47;3.20;;;5.00;99.90;;;;;;4966872;28;20186;-74
2022/01/06 00:35:33;;;;;;;14.97;4.13;;;5.10;99.90;;;;;;4983222;28;20200;-72
2022/01/06 00:38:00;;;;;;;15.17;3.90;;;5.10;99.90;;;;;;4966556;28;20212;-72
2022/01/06 00:40:28;;;;;;;17.97;5.30;;;5.00;99.90;;;;;;4973090;28;20232;-72
2022/01/06 00:42:56;;;;;;;14.73;4.43;;;5.00;99.90;;;;;;4955550;28;20198;-72
2022/01/06 00:45:24;;;;;;;11.93;3.73;;;4.90;99.90;;;;;;4984004;28;20204;-71
2022/01/06 00:47:51;;;;;;;14.57;3.57;;;5.00;99.90;;;;;;4958153;28;20194;-71
2022/01/06 00:50:18;;;;;;;11.87;3.73;;;5.00;99.90;;;;;;4970434;28;20308;-72
2022/01/06 00:52:46;;;;;;;17.77;4.90;;;5.00;99.90;;;;;;4961543;28;20203;-71
2022/01/06 00:55:20;;;;;;;9.73;3.53;;;4.80;99.90;;;;;;4973219;28;20248;-71
2022/01/06 00:57:47;;;;;;;11.50;3.90;;;4.90;99.90;;;;;;4969464;28;20221;-72
2022/01/06 01:00:18;;;;;;;13.00;5.13;;;4.90;99.90;;;;;;4973272;28;20304;-71
2022/01/06 01:02:45;;;;;;;11.53;3.90;;;4.90;99.90;;;;;;4941448;28;20200;-71
2022/01/06 01:05:12;;;;;;;16.77;3.90;;;4.80;99.90;;;;;;4969278;28;20209;-71
2022/01/06 01:07:40;;;;;;;15.83;4.40;;;4.80;99.90;;;;;;4974176;28;20551;-71
2022/01/06 01:10:08;;;;;;;12.87;3.67;;;4.70;99.90;;;;;;4950380;29;20198;-72
2022/01/06 01:12:35;;;;;;;8.57;4.00;;;4.80;99.90;;;;;;4956311;28;20187;-71
2022/01/06 01:15:07;;;;;;;13.40;4.23;;;4.70;99.90;;;;;;4957031;28;20571;-71
2022/01/06 01:17:38;;;;;;;12.63;3.77;;;4.70;99.90;;;;;;4955126;28;20602;-72
2022/01/06 01:20:06;;;;;;;12.60;3.97;;;4.70;99.90;;;;;;4954913;29;20178;-72
2022/01/06 01:22:34;;;;;;;11.07;3.37;;;4.80;99.90;;;;;;4969873;28;20201;-72
2022/01/06 01:25:01;;;;;;;11.77;3.90;;;4.80;99.90;;;;;;4976616;28;20201;-72
2022/01/06 01:27:34;;;;;;;16.03;3.60;;;4.70;99.90;;;;;;4961395;28;20758;-71
2022/01/06 01:30:08;;;;;;;13.43;4.23;;;4.70;99.90;;;;;;4954795;28;20201;-72
2022/01/06 01:32:38;;;;;;;16.87;3.97;;;4.60;99.90;;;;;;4955657;28;20212;-72
2022/01/06 01:35:07;;;;;;;9.93;4.03;;;4.70;99.90;;;;;;4968279;28;20208;-73
2022/01/06 01:37:36;;;;;;;13.47;3.77;;;4.70;99.90;;;;;;4968867;28;20569;-72
2022/01/06 01:40:06;;;;;;;15.00;4.10;;;4.70;99.90;;;;;;4955347;28;20213;-72
2022/01/06 01:42:34;;;;;;;10.90;3.53;;;4.70;99.90;;;;;;4967986;28;21870;-72
2022/01/06 01:45:02;;;;;;;11.63;3.80;;;4.80;99.90;;;;;;4961241;28;20222;-72
2022/01/06 01:47:32;;;;;;;11.90;3.57;;;4.80;99.90;;;;;;4968403;28;20222;-71
2022/01/06 01:50:12;;;;;;;15.23;3.23;;;4.70;99.90;;;;;;4981239;28;20200;-72
2022/01/06 01:52:41;;;;;;;17.47;3.80;;;4.80;99.90;;;;;;4972098;28;20214;-71
2022/01/06 01:55:11;;;;;;;13.60;4.37;;;4.70;99.90;;;;;;4973495;28;20192;-71
2022/01/06 01:57:38;;;;;;;13.30;3.37;;;4.70;99.90;;;;;;4956286;28;20218;-72
2022/01/06 02:00:08;;;;;;;14.67;4.17;;;4.80;99.90;;;;;;4973633;28;20201;-71
2022/01/06 02:02:40;;;;;;;11.43;3.93;;;4.70;99.90;;;;;;4989339;28;20195;-72
2022/01/06 02:12:45;;;;;;;13.10;3.67;;;4.70;99.90;;;;;;4979202;28;20167;-71
2022/01/06 02:15:31;;;;;;;10.80;3.30;;;4.70;99.90;;;;;;4956782;28;20214;-71
2022/01/06 02:17:58;;;;;;;12.80;3.47;;;4.60;99.90;;;;;;4978213;28;20220;-71
2022/01/06 02:20:27;;;;;;;16.93;4.20;;;4.60;99.90;;;;;;4975503;28;20229;-72
2022/01/06 02:22:55;;;;;;;13.20;3.87;;;4.70;99.90;;;;;;4975222;28;20220;-73
2022/01/06 02:25:29;;;;;;;13.27;3.87;;;4.70;99.90;;;;;;4961361;28;20202;-71
2022/01/06 02:27:57;;;;;;;14.73;4.20;;;4.70;99.90;;;;;;4976068;28;20195;-72
2022/01/06 02:30:26;;;;;;;14.63;3.40;;;4.70;99.90;;;;;;4940340;28;20225;-71
2022/01/06 02:32:54;;;;;;;14.17;3.33;;;4.80;99.90;;;;;;4979361;28;20203;-73
2022/01/06 02:35:24;;;;;;;13.00;3.80;;;4.80;99.90;;;;;;4967913;28;20197;-71
2022/01/06 02:37:53;;;;;;;12.43;3.43;;;4.90;99.90;;;;;;4970043;28;20209;-73
2022/01/06 02:40:22;;;;;;;16.33;4.40;;;4.80;99.90;;;;;;4960148;28;20222;-71
2022/01/06 02:42:52;;;;;;;14.87;3.90;;;4.80;99.90;;;;;;4958873;28;20199;-72
2022/01/06 02:45:20;;;;;;;11.70;3.73;;;4.80;99.90;;;;;;4978635;28;20193;-71
2022/01/06 02:47:48;;;;;;;14.40;4.63;;;4.80;99.90;;;;;;4957083;28;20203;-73
2022/01/06 02:50:17;;;;;;;8.13;3.50;;;4.80;99.90;;;;;;4976257;28;20226;-72
2022/01/06 02:52:45;;;;;;;11.67;3.63;;;4.80;99.90;;;;;;4965478;28;20204;-72
2022/01/06 02:55:15;;;;;;;13.23;3.13;;;4.80;99.90;;;;;;4969213;28;20207;-71
2022/01/06 02:57:43;;;;;;;12.90;3.93;;;4.80;99.90;;;;;;4959525;28;20206;-71
2022/01/06 03:00:12;;;;;;;9.27;3.43;;;4.80;99.90;;;;;;4978228;28;20217;-71
2022/01/06 03:02:41;;;;;;;14.30;3.47;;;4.90;99.90;;;;;;4978031;28;20207;-71
2022/01/06 03:05:09;;;;;;;17.30;3.20;;;4.90;99.90;;;;;;4978589;28;20189;-74
2022/01/06 03:07:36;;;;;;;15.00;3.33;;;4.80;99.90;;;;;;4962307;28;20209;-71
2022/01/06 03:10:06;;;;;;;11.50;3.53;;;4.80;99.90;;;;;;4989496;28;20196;-72
2022/01/06 03:12:39;;;;;;;14.83;3.67;;;4.80;99.90;;;;;;4977497;28;20201;-72
2022/01/06 03:15:08;;;;;;;16.43;4.00;;;4.80;99.90;;;;;;4987300;28;20207;-71
2022/01/06 03:17:36;;;;;;;11.27;3.67;;;4.80;99.90;;;;;;4975572;28;20207;-71
2022/01/06 03:20:05;;;;;;;11.87;3.40;;;4.80;99.90;;;;;;4969851;28;20225;-71
2022/01/06 03:22:32;;;;;;;9.53;2.90;;;4.70;99.90;;;;;;4963450;28;20201;-72
2022/01/06 03:25:00;;;;;;;12.17;3.17;;;4.80;99.90;;;;;;4975243;28;20208;-71
2022/01/06 03:27:27;;;;;;;16.63;3.87;;;4.80;99.90;;;;;;4976210;28;20176;-71
2022/01/06 03:29:56;;;;;;;14.60;3.30;;;4.80;99.90;;;;;;4974638;28;20679;-73
2022/01/06 03:32:23;;;;;;;9.87;3.60;;;4.80;99.90;;;;;;4976236;28;20190;-72
2022/01/06 03:34:50;;;;;;;12.17;3.33;;;4.80;99.90;;;;;;4974666;28;20203;-72
2022/01/06 03:37:18;;;;;;;13.10;3.67;;;4.80;99.90;;;;;;4974329;28;20690;-71
2022/01/06 03:39:46;;;;;;;13.63;3.90;;;4.80;99.90;;;;;;4958628;28;20241;-72
2022/01/06 03:42:14;;;;;;;8.27;3.00;;;4.70;99.90;;;;;;4958744;28;20229;-72
2022/01/06 03:44:41;;;;;;;13.17;3.53;;;4.80;99.90;;;;;;4976464;28;20184;-72
2022/01/06 03:47:10;;;;;;;11.87;3.60;;;4.80;99.90;;;;;;4951688;28;20190;-71
2022/01/06 03:49:37;;;;;;;10.87;3.77;;;4.70;99.90;;;;;;4972707;28;20192;-72
2022/01/06 03:52:05;;;;;;;12.70;3.97;;;4.70;99.90;;;;;;4990554;28;20221;-71
2022/01/06 03:54:32;;;;;;;16.20;3.70;;;4.70;99.90;;;;;;4975840;28;20216;-71
2022/01/06 03:57:00;;;;;;;10.20;3.67;;;4.70;99.90;;;;;;4965303;28;20191;-72
2022/01/06 03:59:40;;;;;;;12.87;3.03;;;4.60;99.90;;;;;;4967678;28;20660;-71
2022/01/06 04:02:08;;;;;;;16.50;3.70;;;4.50;99.90;;;;;;4968761;28;20632;-71
2022/01/06 04:04:37;;;;;;;8.57;3.00;;;4.50;99.90;;;;;;4963603;28;20216;-72
2022/01/06 04:07:05;;;;;;;12.27;3.67;;;4.60;99.90;;;;;;4975521;28;20205;-75
2022/01/06 04:09:32;;;;;;;12.03;3.90;;;4.60;99.90;;;;;;4947966;28;20198;-72
2022/01/06 04:12:00;;;;;;;14.50;3.40;;;4.60;99.90;;;;;;4986869;28;20213;-74
2022/01/06 04:14:27;;;;;;;11.63;3.20;;;4.50;99.90;;;;;;4973019;28;20674;-71
2022/01/06 04:16:59;;;;;;;12.43;3.53;;;4.60;99.90;;;;;;4965635;28;20548;-71
2022/01/06 04:19:26;;;;;;;9.97;3.07;;;4.50;99.90;;;;;;4975036;28;20220;-72
2022/01/06 04:21:55;;;;;;;13.30;3.30;;;4.50;99.90;;;;;;4973649;28;20255;-72
2022/01/06 04:24:22;;;;;;;11.33;3.43;;;4.60;99.90;;;;;;4973718;28;20214;-71
2022/01/06 04:26:50;;;;;;;12.40;3.50;;;4.50;99.90;;;;;;4973959;28;20201;-71
2022/01/06 04:30:11;;;;;;;8.20;2.70;;;4.50;99.90;;;;;;4957659;28;20223;-71
2022/01/06 04:32:38;;;;;;;13.50;3.70;;;4.50;99.90;;;;;;4972995;28;20197;-73
2022/01/06 04:35:07;;;;;;;8.73;3.07;;;4.50;99.90;;;;;;4970443;28;20684;-71
2022/01/06 04:37:36;;;;;;;13.93;3.17;;;4.50;99.90;;;;;;4979119;28;20201;-72
2022/01/06 04:40:04;;;;;;;14.03;3.40;;;4.30;99.90;;;;;;4954369;28;20220;-71
2022/01/06 04:42:32;;;;;;;8.37;3.17;;;4.30;99.90;;;;;;4953928;29;20203;-71
2022/01/06 04:44:59;;;;;;;11.67;3.13;;;4.10;99.90;;;;;;4964174;28;20219;-71
2022/01/06 04:47:27;;;;;;;10.23;4.00;;;4.10;99.90;;;;;;4953614;28;20208;-71
2022/01/06 04:49:55;;;;;;;12.80;3.10;;;4.30;99.90;;;;;;4958675;28;20190;-72
2022/01/06 04:52:22;;;;;;;9.63;4.00;;;4.30;99.90;;;;;;4985417;28;20196;-72
2022/01/06 04:54:51;;;;;;;13.80;3.83;;;4.10;99.90;;;;;;4948782;28;20204;-71
2022/01/06 04:57:18;;;;;;;16.23;4.07;;;4.10;99.90;;;;;;4976552;28;20199;-71
2022/01/06 04:59:46;;;;;;;15.33;3.63;;;4.00;99.90;;;;;;4968726;28;20258;-71
2022/01/06 05:02:13;;;;;;;9.90;3.13;;;3.90;99.90;;;;;;4955662;28;20223;-73
2022/01/06 05:04:40;;;;;;;15.67;4.33;;;3.90;99.90;;;;;;4973507;28;20203;-72
2022/01/06 05:07:08;;;;;;;11.33;3.57;;;3.90;99.90;;;;;;4972361;28;20196;-71
2022/01/06 05:09:35;;;;;;;14.90;3.73;;;3.80;99.90;;;;;;4961756;28;20197;-71
2022/01/06 05:12:04;;;;;;;11.00;3.60;;;3.90;99.90;;;;;;4964823;28;20217;-71
2022/01/06 05:14:32;;;;;;;12.03;3.80;;;3.90;99.90;;;;;;4979402;28;20184;-72
2022/01/06 05:17:00;;;;;;;11.60;3.70;;;3.80;99.90;;;;;;4963884;28;20213;-71
2022/01/06 05:19:27;;;;;;;12.70;4.20;;;3.80;99.90;;;;;;4961521;28;20208;-71
2022/01/06 05:21:54;;;;;;;10.53;3.33;;;3.70;99.90;;;;;;4971990;28;20228;-72
2022/01/06 05:24:23;;;;;;;13.30;3.90;;;3.70;99.90;;;;;;4987936;28;20190;-72
2022/01/06 05:26:51;;;;;;;11.70;4.13;;;3.80;99.90;;;;;;4974882;28;20643;-71
2022/01/06 05:29:20;;;;;;;14.80;4.10;;;3.70;99.90;;;;;;4973103;28;20202;-71
2022/01/06 05:31:47;;;;;;;11.83;3.13;;;3.70;99.90;;;;;;4949673;28;20243;-72
2022/01/06 05:34:19;;;;;;;17.70;3.97;;;3.60;99.90;;;;;;4974334;28;20209;-71
2022/01/06 05:36:47;;;;;;;10.67;3.93;;;3.50;99.90;;;;;;4985837;28;20186;-72
2022/01/06 05:39:14;;;;;;;14.30;4.07;;;3.70;99.90;;;;;;4955460;28;20580;-73
2022/01/06 05:41:41;;;;;;;11.63;3.53;;;3.60;99.90;;;;;;4978374;28;20215;-71
2022/01/06 05:44:09;;;;;;;15.67;4.20;;;3.80;99.90;;;;;;4976372;28;20214;-72
2022/01/06 05:46:37;;;;;;;19.40;4.57;;;3.80;99.90;;;;;;4964410;28;20204;-72
2022/01/06 05:49:35;;;;;;;10.60;3.93;;;4.00;99.90;;;;;;4965997;28;20674;-72
2022/01/06 05:52:03;;;;;;;18.63;5.07;;;4.00;99.90;;;;;;4970101;28;20227;-72
2022/01/06 05:54:31;;;;;;;16.47;4.53;;;4.20;99.90;;;;;;4945368;28;20204;-71
2022/01/06 05:56:58;;;;;;;13.70;4.40;;;4.10;99.90;;;;;;4946568;28;20287;-72
2022/01/06 05:59:28;;;;;;;12.90;4.30;;;3.90;99.90;;;;;;4957512;28;20209;-70
2022/01/06 06:02:02;;;;;;;12.33;3.50;;;3.80;99.90;;;;;;4962174;28;20235;-71
2022/01/06 06:04:29;;;;;;;13.83;4.27;;;3.80;99.90;;;;;;4957145;28;20212;-71
2022/01/06 06:06:56;;;;;;;12.07;3.73;;;3.70;99.90;;;;;;4968019;28;20208;-70
2022/01/06 06:09:24;;;;;;;16.67;4.37;;;3.80;99.90;;;;;;4971437;28;20208;-70
2022/01/06 06:12:06;;;;;;;14.10;4.53;;;3.80;99.90;;;;;;4949342;28;20225;-71
2022/01/06 06:14:50;;;;;;;15.87;3.83;;;3.60;99.90;;;;;;4975144;28;20201;-72
2022/01/06 06:17:19;;;;;;;13.27;3.77;;;3.80;99.90;;;;;;4945822;29;20210;-70
2022/01/06 06:19:46;;;;;;;19.10;4.23;;;3.70;99.90;;;;;;4989708;28;20211;-71
2022/01/06 06:22:14;;;;;;;13.47;4.33;;;3.60;99.90;;;;;;4958730;28;20564;-71
2022/01/06 06:24:44;;;;;;;10.90;3.77;;;3.60;99.90;;;;;;4942167;29;20522;-72
2022/01/06 06:27:11;;;;;;;12.23;4.63;;;3.50;99.90;;;;;;4954846;29;20197;-74
2022/01/06 06:29:39;;;;;;;18.77;4.47;;;3.50;99.90;;;;;;4957027;29;20189;-71
2022/01/06 06:32:16;;;;;;;11.87;4.70;;;3.60;99.90;;;;;;4972668;28;20212;-72
2022/01/06 06:34:45;;;;;;;13.47;4.03;;;3.60;99.90;;;;;;4968269;28;20294;-72
2022/01/06 06:37:28;;;;;;;17.47;4.30;;;3.60;99.90;;;;;;4950307;28;20220;-71
2022/01/06 06:39:58;;;;;;;11.40;3.73;;;3.50;99.90;;;;;;4968184;28;20209;-71
2022/01/06 06:42:38;;;;;;;14.07;4.40;;;3.50;99.90;;;;;;4950690;28;20538;-73
2022/01/06 06:48:47;;;;;;;14.20;4.53;;;3.50;99.90;;;;;;4974185;28;20661;-72
2022/01/06 06:51:16;;;;;;;13.37;4.53;;;3.50;99.90;;;;;;4961796;28;20702;-72
2022/01/06 06:53:46;;;;;;;15.07;4.43;;;3.40;99.90;;;;;;4974525;28;20216;-71
2022/01/06 06:56:14;;;;;;;22.53;4.50;;;3.40;99.90;;;;;;4952908;28;20203;-71
2022/01/06 06:58:57;;;;;;;16.03;4.30;;;3.40;99.90;;;;;;4957178;28;20204;-75
2022/01/06 07:01:24;;;;;;;31.63;6.97;;;3.50;99.90;;;;;;4953711;28;20232;-70
2022/01/06 07:03:51;;;;;;;16.03;5.40;;;3.90;99.90;;;;;;4972332;28;20193;-70
2022/01/06 07:06:25;;;;;;;12.43;4.20;;;3.70;99.90;;;;;;4968448;28;20708;-72
2022/01/06 07:08:52;;;;;;;15.57;4.43;;;3.70;99.90;;;;;;4974748;28;20200;-71
2022/01/06 07:11:21;;;;;;;18.53;5.47;;;3.50;99.90;;;;;;4967663;28;20224;-72
2022/01/06 07:13:48;;;;;;;19.53;4.80;;;3.40;99.90;;;;;;4973899;28;20211;-71
2022/01/06 07:16:15;;;;;;;16.13;4.83;;;3.60;99.90;;;;;;4970877;28;20680;-75
2022/01/06 07:18:45;;;;;;;16.57;4.73;;;3.50;99.90;;;;;;4984108;28;20356;-71
2022/01/06 07:21:18;;;;;;;17.63;5.23;;;3.40;99.90;;;;;;4972826;28;20225;-70
2022/01/06 07:23:47;;;;;;;12.30;4.50;;;3.30;99.90;;;;;;4965704;28;20200;-71
2022/01/06 07:26:14;;;;;;;11.33;5.47;;;3.40;99.90;;;;;;4971491;28;20652;-71
2022/01/06 07:28:42;;;;;;;17.47;5.43;;;3.30;99.90;;;;;;4962136;28;20675;-71
2022/01/06 07:31:09;;;;;;;13.90;5.03;;;3.40;99.90;;;;;;4968181;28;20226;-72
2022/01/06 07:33:37;;;;;;;18.13;5.43;;;3.30;99.90;;;;;;4972921;28;20213;-74
2022/01/06 07:36:05;;;;;;;13.67;5.00;;;3.20;99.90;;;;;;4957949;28;20677;-74
2022/01/06 07:38:32;;;;;;;13.23;5.00;;;3.40;99.90;;;;;;4974351;28;20247;-74
2022/01/06 07:41:01;;;;;;;17.50;4.93;;;3.40;99.90;;;;;;4972984;28;20226;-74
2022/01/06 07:43:28;;;;;;;15.30;5.50;;;3.40;99.90;;;;;;4970145;28;20212;-77
2022/01/06 07:45:56;;;;;;;19.00;5.50;;;3.40;99.90;;;;;;4969514;28;20212;-76
2022/01/06 07:48:36;;;;;;;12.97;4.90;;;3.30;99.90;;;;;;4959304;28;20205;-80
2022/01/06 07:51:05;;;;;;;13.23;4.73;;;3.30;99.90;;;;;;4954033;28;20229;-74
2022/01/06 07:53:32;;;;;;;18.50;5.27;;;3.50;99.90;;;;;;4973569;28;20214;-76
2022/01/06 07:56:01;;;;;;;10.47;5.10;;;3.60;99.90;;;;;;4972734;28;20207;-76
2022/01/06 07:58:28;;;;;;;17.97;4.90;;;3.50;99.90;;;;;;4955634;28;20271;-74
2022/01/06 08:00:56;;;;;;;13.67;4.67;;;3.60;99.90;;;;;;4970560;28;20687;-75
2022/01/06 08:03:23;;;;;;;15.47;5.33;;;3.60;99.90;;;;;;4969610;28;20210;-75
2022/01/06 08:05:50;;;;;;;13.67;4.17;;;3.50;99.90;;;;;;4969834;28;20231;-74
2022/01/06 08:08:18;;;;;;;17.53;5.20;;;3.60;99.90;;;;;;4968110;28;20196;-75
2022/01/06 08:10:45;;;;;;;16.53;4.57;;;3.50;99.90;;;;;;4950776;28;20224;-75
2022/01/06 08:13:14;;;;;;;14.70;5.27;;;3.60;99.90;;;;;;4965824;28;20216;-74
2022/01/06 08:15:42;;;;;;;12.63;5.10;;;3.50;99.90;;;;;;4963416;28;20200;-74
2022/01/06 08:18:30;;;;;;;14.00;6.80;;;3.40;99.90;;;;;;4953319;28;20201;-75
2022/01/06 08:20:59;;;;;;;16.40;5.20;;;3.30;99.90;;;;;;4971803;28;20575;-75
2022/01/06 08:23:26;;;;;;;18.17;5.97;;;3.40;99.90;;;;;;4971190;28;20217;-75
2022/01/06 08:25:53;;;;;;;16.17;6.07;;;3.30;99.90;;;;;;4954878;28;20205;-74
2022/01/06 08:28:25;;;;;;;15.83;6.13;;;3.30;99.90;;;;;;4967191;28;20708;-75
2022/01/06 08:30:56;;;;;;;18.27;5.43;;;3.30;99.90;;;;;;4949465;28;20582;-75
2022/01/06 08:33:23;;;;;;;15.23;5.17;;;3.20;99.90;;;;;;4956935;28;20194;-75
2022/01/06 08:35:50;;;;;;;15.60;5.53;;;3.20;99.90;;;;;;4947509;28;20675;-75
2022/01/06 08:38:19;;;;;;;12.70;5.70;;;3.20;99.90;;;;;;4955474;28;20209;-75
2022/01/06 08:40:46;;;;;;;14.03;5.20;;;3.20;99.90;;;;;;4942502;28;20684;-74
2022/01/06 08:43:14;;;;;;;18.33;5.70;;;3.10;99.90;;;;;;4963667;28;20189;-74
2022/01/06 08:45:45;;;;;;;17.67;6.10;;;3.20;99.90;;;;;;4963166;28;20699;-72
2022/01/06 08:48:12;;;;;;;16.17;6.13;;;3.30;99.90;;;;;;4966832;28;20197;-76
2022/01/06 08:50:40;;;;;;;15.27;6.03;;;3.40;99.90;;;;;;4967468;28;20780;-75
2022/01/06 08:53:07;;;;;;;14.77;5.50;;;3.40;99.90;;;;;;4970555;28;20193;-73
2022/01/06 08:55:37;;;;;;;15.87;6.13;;;3.50;99.90;;;;;;4966643;28;20199;-75
2022/01/06 08:58:05;;;;;;;16.53;6.13;;;3.70;99.90;;;;;;4964312;28;20205;-76
2022/01/06 09:00:35;;;;;;;10.90;5.23;;;3.80;99.90;;;;;;4964994;28;20212;-75
2022/01/06 09:03:05;;;;;;;14.80;5.47;;;3.60;99.90;;;;;;4946747;28;20229;-76
2022/01/06 09:05:32;;;;;;;12.13;5.83;;;3.70;99.90;;;;;;4952963;28;20207;-76
2022/01/06 09:08:00;;;;;;;17.50;6.30;;;3.60;99.90;;;;;;4953643;28;20224;-73
2022/01/06 09:10:30;;;;;;;18.07;6.20;;;3.50;99.90;;;;;;4966312;28;20229;-76
2022/01/06 09:13:02;;;;;;;19.83;6.30;;;3.60;99.90;;;;;;4953985;28;20560;-76
2022/01/06 09:15:30;;;;;;;11.20;5.80;;;3.70;99.90;;;;;;4968529;28;20211;-76
2022/01/06 09:17:57;;;;;;;14.20;6.00;;;3.80;99.90;;;;;;4958793;28;20228;-74
2022/01/06 09:20:26;;;;;;;15.57;6.07;;;3.80;99.90;;;;;;4957871;28;20226;-74
2022/01/06 09:22:53;;;;;;;17.63;6.17;;;3.90;99.90;;;;;;4954112;28;20225;-74
2022/01/06 09:25:21;;;;;;;15.97;6.30;;;3.90;99.90;;;;;;4945733;28;20198;-75
2022/01/06 09:27:48;;;;;;;20.10;6.90;;;3.80;99.90;;;;;;4985666;28;20201;-75
2022/01/06 09:30:40;;;;;;;16.93;6.00;;;3.70;99.90;;;;;;4973945;28;20180;-74
2022/01/06 09:33:08;;;;;;;21.50;6.60;;;3.80;99.90;;;;;;4977762;28;20204;-75
2022/01/06 09:35:36;;;;;;;15.03;7.40;;;3.80;99.90;;;;;;4960894;28;20208;-74
2022/01/06 09:38:04;;;;;;;18.07;8.13;;;4.00;99.90;;;;;;4969050;28;20204;-75
2022/01/06 09:44:23;;;;;;;14.27;5.80;;;4.10;99.90;;;;;;4999857;28;20174;-74
2022/01/06 09:46:51;;;;;;;20.23;7.60;;;4.20;99.90;;;;;;4979935;28;20216;-74
2022/01/06 09:49:19;;;;;;;18.17;7.33;;;4.10;99.90;;;;;;4973739;28;20176;-75
2022/01/06 09:51:47;;;;;;;16.63;6.97;;;4.30;99.90;;;;;;4975804;28;20212;-75
2022/01/06 09:54:15;;;;;;;17.63;6.90;;;4.60;99.90;;;;;;4973561;28;20185;-75
2022/01/06 09:56:42;;;;;;;16.77;6.53;;;4.60;99.90;;;;;;4956557;28;20201;-75
2022/01/06 09:59:10;;;;;;;14.17;6.77;;;4.40;99.90;;;;;;4958015;28;20196;-74
2022/01/06 10:01:42;;;;;;;21.90;7.53;;;4.60;99.90;;;;;;4974319;28;20224;-75
2022/01/06 10:04:18;;;;;;;15.97;7.00;;;4.60;99.90;;;;;;4973591;28;20202;-74
2022/01/06 10:06:58;;;;;;;17.40;6.83;;;4.60;99.90;;;;;;4971825;28;20227;-74
2022/01/06 10:09:34;;;;;;;14.17;6.73;;;4.80;99.90;;;;;;4964164;28;20205;-75
2022/01/06 10:12:06;;;;;;;19.93;6.43;;;4.90;99.90;;;;;;4971016;28;20301;-74
2022/01/06 10:14:42;;;;;;;20.10;7.93;;;4.80;99.90;;;;;;4954429;28;20207;-74
2022/01/06 10:17:10;;;;;;;16.47;6.50;;;4.90;99.90;;;;;;4978453;28;20208;-74
2022/01/06 10:19:41;;;;;;;14.77;6.83;;;5.00;99.90;;;;;;4970304;28;20205;-74
2022/01/06 10:22:16;;;;;;;15.13;6.07;;;5.00;99.90;;;;;;4965746;28;20220;-75
2022/01/06 10:24:45;;;;;;;20.33;7.03;;;5.20;99.90;;;;;;4956196;28;20247;-74
2022/01/06 10:27:15;;;;;;;16.07;6.20;;;5.60;99.90;;;;;;4972095;28;20209;-74
2022/01/06 10:29:45;;;;;;;18.67;6.43;;;5.60;99.90;;;;;;4954647;28;20193;-75
2022/01/06 10:32:18;;;;;;;16.67;6.57;;;5.90;99.90;;;;;;4962077;28;20215;-74
2022/01/06 10:34:48;;;;;;;16.77;6.33;;;5.90;99.90;;;;;;4954881;28;20202;-75
2022/01/06 10:37:22;;;;;;;16.37;6.03;;;6.30;99.90;;;;;;4948212;28;20209;-76
2022/01/06 10:39:52;;;;;;;10.47;5.40;;;6.60;99.90;;;;;;4956613;28;20207;-75
2022/01/06 10:43:05;;;;;;;16.37;5.77;;;6.40;99.90;;;;;;4954170;28;20246;-76
2022/01/06 10:45:34;;;;;;;13.93;5.93;;;7.10;99.90;;;;;;4941730;28;20207;-74
2022/01/06 10:48:04;;;;;;;16.70;5.60;;;7.00;99.90;;;;;;4966418;28;20200;-75
2022/01/06 10:50:34;;;;;;;15.43;5.73;;;7.60;99.90;;;;;;4956539;28;20224;-74
2022/01/06 10:53:06;;;;;;;18.77;6.93;;;7.20;99.90;;;;;;4980833;28;20684;-74
2022/01/06 10:55:35;;;;;;;20.73;6.27;;;6.80;99.90;;;;;;4972078;28;20203;-75
2022/01/06 10:58:04;;;;;;;10.60;5.70;;;6.80;99.90;;;;;;4956302;28;20206;-75
2022/01/06 11:00:34;;;;;;;20.40;6.20;;;6.80;99.90;;;;;;4972934;28;20220;-74
2022/01/06 11:03:10;;;;;;;14.73;6.07;;;7.20;99.90;;;;;;4972993;28;20224;-75
2022/01/06 11:05:38;;;;;;;15.47;6.00;;;7.40;99.90;;;;;;4977121;28;20200;-75
2022/01/06 11:08:08;;;;;;;17.90;6.47;;;7.00;99.90;;;;;;4951007;28;20204;-75
2022/01/06 11:10:39;;;;;;;18.00;6.60;;;8.30;99.90;;;;;;4976913;28;20220;-75
2022/01/06 11:13:07;;;;;;;17.07;7.30;;;9.30;99.90;;;;;;4976113;28;20201;-74
2022/01/06 11:15:34;;;;;;;13.13;5.83;;;8.50;99.90;;;;;;4975179;28;20220;-75
2022/01/06 11:18:04;;;;;;;14.27;6.10;;;8.60;99.90;;;;;;4975338;28;20714;-75
2022/01/06 11:20:33;;;;;;;15.37;7.50;;;9.00;99.90;;;;;;4955778;28;20222;-75
2022/01/06 11:23:01;;;;;;;17.37;6.90;;;9.20;99.90;;;;;;4956350;29;20232;-75
2022/01/06 11:25:34;;;;;;;14.23;6.47;;;8.80;99.90;;;;;;4959360;28;20204;-74
2022/01/06 11:28:03;;;;;;;13.23;6.23;;;8.60;99.90;;;;;;4959049;28;20208;-75
2022/01/06 11:30:43;;;;;;;17.33;6.37;;;8.40;99.90;;;;;;4969471;28;20225;-74
2022/01/06 11:33:11;;;;;;;16.80;6.57;;;9.30;99.90;;;;;;4949949;28;20206;-75
2022/01/06 11:35:52;;;;;;;12.67;6.40;;;9.10;99.90;;;;;;4966492;28;20209;-74
2022/01/06 11:38:20;;;;;;;14.23;6.20;;;8.70;99.90;;;;;;4994523;23;20220;-79
2022/01/06 11:40:51;;;;;;;18.27;6.67;;;9.10;99.90;;;;;;4980483;28;20201;-80
2022/01/06 11:43:20;;;;;;;13.67;5.60;;;10.50;99.90;;;;;;5015667;28;20219;-80
2022/01/06 11:45:49;;;;;;;8.97;5.80;;;9.20;99.90;;;;;;4990565;28;20204;-77
2022/01/06 11:48:17;;;;;;;21.23;6.57;;;10.10;99.90;;;;;;4974632;28;20221;-78
2022/01/06 11:50:47;;;;;;;14.60;6.50;;;9.70;99.90;;;;;;4971249;28;20211;-78
2022/01/06 11:53:16;;;;;;;15.10;5.40;;;11.30;99.80;;;;;;4978684;28;20196;-77
2022/01/06 11:55:45;;;;;;;16.03;6.33;;;11.00;98.00;;;;;;4975718;28;20204;-77
2022/01/06 11:58:16;;;;;;;14.40;5.60;;;9.70;99.90;;;;;;4974756;28;20237;-77
2022/01/06 12:00:57;;;;;;;12.47;5.37;;;9.90;99.90;;;;;;5002465;28;20196;-77
2022/01/06 12:03:34;;;;;;;15.57;5.87;;;9.50;99.90;;;;;;4980987;28;20219;-77
2022/01/06 12:06:08;;;;;;;11.13;5.00;;;9.40;99.90;;;;;;4994190;28;20219;-77
2022/01/06 12:08:39;;;;;;;13.43;6.27;;;9.80;99.90;;;;;;4995763;28;20211;-77
2022/01/06 12:11:07;;;;;;;13.90;6.27;;;9.80;99.90;;;;;;4993541;28;20210;-77
2022/01/06 12:13:45;;;;;;;13.37;5.33;;;9.70;99.90;;;;;;4995850;28;20201;-77
2022/01/06 12:16:13;;;;;;;15.73;5.93;;;10.10;99.90;;;;;;4978622;28;20196;-77
2022/01/06 12:18:40;;;;;;;11.17;5.40;;;10.00;99.10;;;;;;4978223;28;20584;-77
2022/01/06 12:21:09;;;;;;;10.00;5.57;;;10.30;99.20;;;;;;4978181;28;20201;-78
2022/01/06 12:24:14;;;;;;;15.73;7.03;;;10.90;98.40;;;;;;4993883;28;20220;-77
2022/01/06 12:26:42;;;;;;;14.50;7.70;;;10.50;98.30;;;;;;5010712;28;20203;-78
2022/01/06 12:29:15;;;;;;;15.07;6.33;;;10.80;97.60;;;;;;4997844;28;20216;-80
2022/01/06 12:31:43;;;;;;;11.57;6.60;;;10.00;98.90;;;;;;5001646;28;20184;-80
2022/01/06 12:34:14;;;;;;;18.03;7.97;;;9.80;99.90;;;;;;4992261;28;20219;-80
2022/01/06 12:36:43;;;;;;;19.37;8.27;;;10.00;99.20;;;;;;4977282;28;20196;-78
2022/01/06 12:39:13;;;;;;;13.83;6.83;;;9.60;99.90;;;;;;4978006;28;20224;-77
2022/01/06 12:41:41;;;;;;;15.53;7.90;;;10.00;99.90;;;;;;4977974;28;20201;-77
2022/01/06 12:44:09;;;;;;;13.60;8.17;;;10.10;99.30;;;;;;4984572;28;20677;-80
2022/01/06 12:46:42;;;;;;;15.90;8.63;;;10.10;99.00;;;;;;4976736;28;20216;-81
2022/01/06 12:49:11;;;;;;;15.20;9.33;;;10.40;99.20;;;;;;4975402;28;20226;-80
2022/01/06 12:51:41;;;;;;;19.93;10.07;;;10.30;98.60;;;;;;4997184;28;20204;-80
2022/01/06 12:54:13;;;;;;;19.33;11.27;;;9.70;99.80;;;;;;4983146;28;20196;-80
2022/01/06 12:56:43;;;;;;;19.97;11.60;;;9.50;99.90;;;;;;4985996;28;20207;-80
2022/01/06 12:59:26;;;;;;;;;;;;;;;;;;;;;
2022/01/06 13:02:11;;;;;;;21.40;12.43;;;8.80;99.90;;;;;;4993463;28;20188;-78
2022/01/06 13:04:41;;;;;;;22.37;13.50;;;7.90;99.90;;;;;;5011198;28;20227;-77
2022/01/06 13:07:12;;;;;;;21.73;13.70;;;8.00;99.90;;;;;;4990739;28;20200;-75
2022/01/06 13:09:40;;;;;;;22.37;13.93;;;7.30;99.90;;;;;;4976513;28;20224;-78
2022/01/06 13:12:10;;;;;;;24.47;16.10;;;7.40;99.90;;;;;;4991131;28;20211;-78
2022/01/06 13:14:41;;;;;;;23.90;14.40;;;7.80;99.90;;;;;;4991418;28;20215;-78
2022/01/06 13:17:13;;;;;;;26.37;16.10;;;8.40;99.90;;;;;;4975883;28;20227;-78
2022/01/06 13:19:53;;;;;;;25.63;17.60;;;8.20;99.90;;;;;;4977796;28;20222;-78
2022/01/06 13:22:48;;;;;;;24.20;16.77;;;7.80;99.90;;;;;;4979931;28;20198;-78
2022/01/06 13:25:17;;;;;;;32.93;19.20;;;7.90;99.90;;;;;;4988174;28;20223;-78